createdAt,value
2023-03-12T00:00:55.139Z,2.17
2023-03-12T00:03:41.849Z,2.70
2023-03-12T00:06:29.174Z,2.57
2023-03-12T00:09:15.735Z,2.43
2023-03-12T00:12:02.165Z,2.43
2023-03-12T00:14:48.674Z,2.43
2023-03-12T00:17:36.444Z,2.40
2023-03-12T00:20:23.496Z,2.80
2023-03-12T00:23:10.051Z,2.40
2023-03-12T00:26:01.257Z,2.63
2023-03-12T00:28:49.136Z,2.50
2023-03-12T00:31:36.475Z,2.40
2023-03-12T00:34:24.581Z,2.63
2023-03-12T00:37:11.317Z,2.80
2023-03-12T00:39:57.947Z,2.90
2023-03-12T00:42:44.445Z,2.00
2023-03-12T00:45:30.909Z,2.30
2023-03-12T00:48:17.177Z,2.80
2023-03-12T00:51:05.323Z,2.77
2023-03-12T00:53:51.776Z,2.63
2023-03-12T00:56:38.821Z,2.70
2023-03-12T00:59:25.512Z,2.27
2023-03-12T01:02:12.035Z,2.43
2023-03-12T01:04:58.420Z,2.73
2023-03-12T01:07:46.172Z,2.47
2023-03-12T01:10:33.049Z,2.60
2023-03-12T01:13:19.478Z,2.60
2023-03-12T01:16:06.464Z,2.50
2023-03-12T01:18:53.094Z,2.53
2023-03-12T01:21:39.620Z,2.50
2023-03-12T01:24:27.317Z,2.63
2023-03-12T01:27:13.781Z,2.20
2023-03-12T01:30:00.410Z,2.60
2023-03-12T01:32:46.894Z,2.73
2023-03-12T01:35:37.850Z,2.40
2023-03-12T01:38:24.691Z,2.50
2023-03-12T01:41:13.258Z,3.10
2023-03-12T01:44:01.615Z,3.00
2023-03-12T01:46:48.233Z,2.97
2023-03-12T01:49:35.970Z,2.70
2023-03-12T01:52:25.903Z,2.93
2023-03-12T01:55:16.204Z,2.87
2023-03-12T01:58:04.091Z,2.77
2023-03-12T02:00:50.851Z,2.70
2023-03-12T02:03:38.804Z,2.90
2023-03-12T02:06:31.531Z,2.73
2023-03-12T02:09:20.639Z,3.07
2023-03-12T02:12:08.373Z,3.20
2023-03-12T02:14:56.369Z,2.67
2023-03-12T02:17:43.248Z,2.70
2023-03-12T02:20:37.646Z,2.70
2023-03-12T02:23:30.070Z,2.90
2023-03-12T02:26:20.158Z,2.80
2023-03-12T02:29:08.003Z,3.20
2023-03-12T02:31:57.002Z,3.23
2023-03-12T02:34:43.377Z,2.87
2023-03-12T02:37:29.955Z,2.87
2023-03-12T02:40:22.945Z,3.30
2023-03-12T02:43:11.792Z,3.33
2023-03-12T02:45:58.273Z,3.43
2023-03-12T02:48:45.154Z,2.90
2023-03-12T02:51:31.997Z,3.50
2023-03-12T02:54:20.197Z,3.67
2023-03-12T02:57:06.855Z,2.93
2023-03-12T02:59:54.518Z,3.40
2023-03-12T03:02:41.738Z,3.50
2023-03-12T03:05:28.569Z,3.43
2023-03-12T03:08:15.219Z,3.27
2023-03-12T03:11:03.132Z,3.00
2023-03-12T03:13:49.670Z,3.03
2023-03-12T03:16:37.972Z,3.30
2023-03-12T03:19:24.779Z,3.03
2023-03-12T03:22:11.493Z,2.97
2023-03-12T03:24:57.942Z,2.93
2023-03-12T03:27:44.398Z,2.70
2023-03-12T03:30:31.532Z,2.70
2023-03-12T03:33:19.574Z,2.77
2023-03-12T03:36:07.797Z,2.80
2023-03-12T03:38:54.538Z,2.87
2023-03-12T03:41:41.057Z,2.40
2023-03-12T03:44:27.827Z,2.97
2023-03-12T03:47:14.641Z,2.90
2023-03-12T03:50:02.283Z,2.67
2023-03-12T03:52:48.660Z,2.67
2023-03-12T03:55:37.512Z,2.80
2023-03-12T03:58:24.219Z,2.90
2023-03-12T04:01:11.299Z,2.77
2023-03-12T04:03:58.003Z,2.50
2023-03-12T04:06:45.725Z,2.60
2023-03-12T04:09:32.569Z,2.60
2023-03-12T04:12:19.485Z,2.80
2023-03-12T04:15:06.910Z,2.57
2023-03-12T04:17:53.482Z,2.70
2023-03-12T04:20:39.922Z,2.50
2023-03-12T04:23:27.934Z,2.50
2023-03-12T04:26:14.860Z,2.53
2023-03-12T04:29:01.730Z,2.43
2023-03-12T04:31:48.564Z,2.77
2023-03-12T04:34:35.647Z,2.60
2023-03-12T04:37:22.600Z,2.80
2023-03-12T04:40:12.545Z,2.63
2023-03-12T04:42:59.216Z,3.03
2023-03-12T04:45:45.506Z,2.30
2023-03-12T04:48:32.324Z,2.57
2023-03-12T04:51:19.121Z,2.23
2023-03-12T04:54:05.957Z,2.73
2023-03-12T04:56:53.699Z,2.47
2023-03-12T04:59:40.442Z,2.70
2023-03-12T05:02:26.766Z,2.87
2023-03-12T05:05:13.358Z,2.40
2023-03-12T05:08:00.302Z,2.33
2023-03-12T05:10:47.158Z,2.20
2023-03-12T05:13:34.860Z,2.67
2023-03-12T05:16:21.453Z,2.63
2023-03-12T05:19:08.381Z,2.57
2023-03-12T05:21:55.021Z,2.63
2023-03-12T05:24:41.422Z,2.93
2023-03-12T05:27:27.980Z,2.97
2023-03-12T05:30:16.448Z,2.87
2023-03-12T05:33:03.037Z,3.30
2023-03-12T05:35:49.598Z,2.70
2023-03-12T05:38:36.129Z,3.60
2023-03-12T05:41:25.067Z,3.73
2023-03-12T05:44:13.642Z,3.97
2023-03-12T05:47:01.417Z,3.53
2023-03-12T05:49:48.155Z,4.40
2023-03-12T05:52:34.963Z,4.13
2023-03-12T05:55:21.423Z,4.20
2023-03-12T05:58:08.918Z,3.57
2023-03-12T06:00:55.658Z,3.23
2023-03-12T06:03:43.957Z,2.90
2023-03-12T06:06:32.078Z,3.67
2023-03-12T06:09:18.482Z,3.47
2023-03-12T06:12:06.218Z,4.10
2023-03-12T06:14:52.760Z,4.07
2023-03-12T06:17:39.631Z,4.00
2023-03-12T06:20:27.557Z,3.53
2023-03-12T06:23:14.525Z,3.10
2023-03-12T06:26:01.141Z,2.73
2023-03-12T06:28:48.467Z,2.67
2023-03-12T06:31:37.327Z,2.60
2023-03-12T06:34:25.503Z,2.60
2023-03-12T06:37:13.566Z,2.30
2023-03-12T06:40:00.197Z,2.50
2023-03-12T06:42:46.734Z,2.13
2023-03-12T06:45:33.654Z,1.70
2023-03-12T06:48:19.899Z,1.93
2023-03-12T06:51:06.863Z,2.10
2023-03-12T06:53:54.540Z,2.03
2023-03-12T06:56:41.268Z,2.17
2023-03-12T06:59:28.583Z,2.13
2023-03-12T07:02:15.022Z,1.93
2023-03-12T07:05:01.825Z,1.97
2023-03-12T07:07:48.687Z,1.87
2023-03-12T07:10:36.450Z,1.83
2023-03-12T07:13:22.979Z,1.80
2023-03-12T07:16:10.215Z,1.73
2023-03-12T07:18:56.832Z,1.70
2023-03-12T07:21:43.185Z,1.80
2023-03-12T07:24:29.647Z,1.90
2023-03-12T07:27:17.472Z,1.73
2023-03-12T07:30:03.973Z,2.20
2023-03-12T07:32:50.358Z,1.87
2023-03-12T07:35:38.740Z,1.93
2023-03-12T07:38:25.277Z,1.70
2023-03-12T07:41:12.083Z,1.77
2023-03-12T07:43:59.794Z,1.70
2023-03-12T07:46:47.038Z,2.00
2023-03-12T07:49:33.375Z,1.70
2023-03-12T07:52:20.363Z,2.03
2023-03-12T07:55:08.135Z,2.03
2023-03-12T07:57:56.542Z,2.07
2023-03-12T08:00:45.165Z,1.70
2023-03-12T08:03:32.184Z,1.50
2023-03-12T08:06:18.965Z,1.73
2023-03-12T08:09:05.924Z,1.57
2023-03-12T08:11:52.547Z,1.80
2023-03-12T08:14:39.297Z,1.80
2023-03-12T08:17:27.409Z,1.60
2023-03-12T08:20:14.490Z,1.70
2023-03-12T08:23:01.299Z,1.60
2023-03-12T08:25:48.166Z,1.70
2023-03-12T08:28:34.594Z,1.57
2023-03-12T08:31:21.248Z,1.80
2023-03-12T08:34:09.399Z,1.53
2023-03-12T08:36:56.563Z,1.60
2023-03-12T08:39:43.256Z,1.80
2023-03-12T08:42:29.846Z,1.57
2023-03-12T08:45:16.806Z,1.73
2023-03-12T08:48:03.411Z,1.53
2023-03-12T08:50:51.401Z,1.50
2023-03-12T08:53:38.296Z,1.67
2023-03-12T08:56:25.040Z,1.40
2023-03-12T08:59:11.842Z,1.93
2023-03-12T09:01:58.196Z,1.70
2023-03-12T09:04:48.431Z,1.70
2023-03-12T09:07:36.920Z,1.50
2023-03-12T09:10:23.693Z,1.50
2023-03-12T09:13:10.010Z,1.70
2023-03-12T09:16:01.137Z,1.77
2023-03-12T09:18:47.816Z,1.37
2023-03-12T09:21:34.256Z,1.70
2023-03-12T09:24:21.974Z,1.40
2023-03-12T09:27:09.046Z,1.70
2023-03-12T09:30:00.491Z,1.50
2023-03-12T09:32:48.120Z,1.83
2023-03-12T09:35:34.704Z,1.50
2023-03-12T09:38:21.256Z,1.73
2023-03-12T09:41:19.308Z,1.77
2023-03-12T09:44:12.499Z,1.63
2023-03-12T09:47:02.981Z,1.50
2023-03-12T09:49:53.635Z,1.47
2023-03-12T09:52:45.484Z,1.70
2023-03-12T09:55:37.994Z,1.90
2023-03-12T09:58:30.324Z,1.43
2023-03-12T10:01:38.652Z,1.30
2023-03-12T10:04:37.783Z,1.50
2023-03-12T10:07:35.801Z,1.60
2023-03-12T10:10:31.759Z,1.63
2023-03-12T10:13:34.436Z,1.80
2023-03-12T10:16:36.197Z,1.47
2023-03-12T10:19:36.963Z,1.37
2023-03-12T10:22:36.581Z,1.50
2023-03-12T10:25:30.468Z,1.83
2023-03-12T10:28:20.753Z,1.70
2023-03-12T10:31:16.958Z,1.60
2023-03-12T10:34:10.186Z,1.70
2023-03-12T10:37:01.116Z,1.80
2023-03-12T10:39:48.844Z,2.33
2023-03-12T10:42:35.320Z,1.80
2023-03-12T10:45:32.921Z,1.83
2023-03-12T10:48:24.148Z,2.00
2023-03-12T10:51:12.888Z,2.23
2023-03-12T10:53:59.514Z,2.13
2023-03-12T10:56:50.973Z,1.90
2023-03-12T10:59:39.304Z,1.90
2023-03-12T11:02:35.721Z,1.93
2023-03-12T11:05:25.904Z,1.90
2023-03-12T11:08:23.403Z,2.10
2023-03-12T11:11:11.548Z,2.10
2023-03-12T11:14:08.960Z,2.10
2023-03-12T11:16:57.206Z,2.20
2023-03-12T11:19:43.771Z,2.13
2023-03-12T11:22:33.656Z,2.40
2023-03-12T11:25:24.538Z,2.63
2023-03-12T11:28:20.518Z,2.37
2023-03-12T11:31:11.224Z,2.43
2023-03-12T11:34:04.359Z,2.37
2023-03-12T11:36:57.379Z,2.53
2023-03-12T11:39:59.820Z,2.60
2023-03-12T11:43:01.932Z,2.67
2023-03-12T11:46:04.845Z,2.90
2023-03-12T11:49:03.652Z,2.73
2023-03-12T11:51:57.871Z,2.53
2023-03-12T11:55:06.387Z,2.60
2023-03-12T11:58:07.272Z,3.20
2023-03-12T12:00:58.978Z,3.13
2023-03-12T12:04:10.967Z,2.90
2023-03-12T12:07:10.001Z,3.30
2023-03-12T12:10:03.245Z,3.03
2023-03-12T12:12:58.375Z,3.40
2023-03-12T12:15:53.078Z,3.30
2023-03-12T12:18:54.515Z,2.93
2023-03-12T12:22:01.735Z,3.60
2023-03-12T12:25:12.456Z,3.50
2023-03-12T12:28:16.567Z,3.60
2023-03-12T12:31:17.551Z,3.60
2023-03-12T12:34:47.194Z,3.00
2023-03-12T12:37:44.434Z,3.80
2023-03-12T12:40:37.501Z,3.77
2023-03-12T12:43:29.133Z,3.27
2023-03-12T12:46:19.104Z,3.63
2023-03-12T12:49:11.084Z,3.67
2023-03-12T12:52:00.987Z,3.47
2023-03-12T12:54:56.047Z,3.63
2023-03-12T12:57:46.935Z,3.47
2023-03-12T13:00:48.478Z,3.50
2023-03-12T13:03:34.918Z,3.87
2023-03-12T13:06:21.352Z,4.17
2023-03-12T13:09:36.876Z,3.40
2023-03-12T13:12:30.510Z,3.13
2023-03-12T13:18:24.198Z,3.37
2023-03-12T13:21:21.178Z,3.40
2023-03-12T13:24:20.519Z,3.93
2023-03-12T13:27:14.295Z,3.27
2023-03-12T13:30:21.133Z,3.60
2023-03-12T13:33:14.071Z,3.37
2023-03-12T13:36:11.323Z,4.07
2023-03-12T13:39:00.312Z,3.70
2023-03-12T13:41:49.898Z,3.77
2023-03-12T13:44:40.453Z,3.60
2023-03-12T13:47:30.384Z,3.57
2023-03-12T13:50:18.956Z,3.50
2023-03-12T13:53:09.470Z,4.17
2023-03-12T13:56:05.628Z,3.67
2023-03-12T13:58:57.491Z,3.90
2023-03-12T14:01:49.994Z,3.70
2023-03-12T14:04:40.835Z,4.10
2023-03-12T14:07:46.143Z,4.30
2023-03-12T14:10:44.565Z,4.50
2023-03-12T14:13:48.956Z,4.40
2023-03-12T14:16:39.981Z,5.00
2023-03-12T14:19:28.971Z,4.57
2023-03-12T14:22:16.412Z,4.77
2023-03-12T14:25:07.659Z,5.57
2023-03-12T14:27:55.753Z,4.60
2023-03-12T14:30:47.847Z,4.67
2023-03-12T14:33:37.647Z,4.50
2023-03-12T14:36:28.177Z,4.40
2023-03-12T14:39:26.101Z,4.47
2023-03-12T14:42:21.655Z,4.70
2023-03-12T14:45:15.218Z,4.77
2023-03-12T14:48:01.973Z,5.63
2023-03-12T14:50:48.841Z,6.50
2023-03-12T14:53:37.139Z,6.20
2023-03-12T14:56:29.428Z,5.50
2023-03-12T14:59:29.310Z,5.17
2023-03-12T15:02:20.884Z,5.23
2023-03-12T15:05:15.991Z,6.53
2023-03-12T15:08:04.360Z,6.73
2023-03-12T15:10:55.811Z,6.60
2023-03-12T15:13:42.606Z,8.33
2023-03-12T15:16:29.508Z,8.90
2023-03-12T15:19:21.210Z,8.70
2023-03-12T15:22:11.779Z,9.10
2023-03-12T15:25:03.348Z,9.43
2023-03-12T15:27:50.501Z,8.47
2023-03-12T15:30:38.561Z,10.37
2023-03-12T15:33:25.718Z,10.53
2023-03-12T15:36:27.821Z,10.23
2023-03-12T15:39:26.411Z,11.30
2023-03-12T15:42:19.501Z,11.27
2023-03-12T15:45:09.882Z,11.27
2023-03-12T15:47:56.858Z,11.90
2023-03-12T15:50:44.728Z,11.83
2023-03-12T15:53:34.458Z,12.87
2023-03-12T15:56:24.417Z,12.53
2023-03-12T15:59:24.363Z,13.50
2023-03-12T16:02:13.347Z,11.57
2023-03-12T16:05:00.296Z,13.27
2023-03-12T16:07:46.952Z,12.17
2023-03-12T16:10:37.357Z,12.53
2023-03-12T16:13:28.587Z,13.83
2023-03-12T16:16:16.178Z,10.97
2023-03-12T16:19:03.468Z,11.40
2023-03-12T16:21:50.536Z,10.93
2023-03-12T16:24:37.193Z,10.70
2023-03-12T16:27:32.535Z,9.90
2023-03-12T16:30:24.989Z,9.20
2023-03-12T16:33:15.630Z,10.17
2023-03-12T16:36:02.431Z,10.40
2023-03-12T16:38:49.340Z,12.60
2023-03-12T16:41:35.810Z,12.90
2023-03-12T16:44:24.458Z,11.77
2023-03-12T16:47:12.732Z,12.90
2023-03-12T16:49:59.616Z,15.23
2023-03-12T16:52:48.154Z,12.63
2023-03-12T16:55:45.976Z,13.93
2023-03-12T16:58:32.566Z,13.47
2023-03-12T17:01:24.202Z,12.80
2023-03-12T17:04:12.375Z,13.87
2023-03-12T17:06:59.037Z,14.20
2023-03-12T17:09:45.548Z,13.60
2023-03-12T17:12:35.647Z,14.83
2023-03-12T17:15:25.843Z,16.67
2023-03-12T17:18:14.349Z,14.20
2023-03-12T17:21:01.086Z,17.33
2023-03-12T17:23:50.486Z,15.40
2023-03-12T17:26:37.128Z,17.10
2023-03-12T17:29:23.388Z,15.10
2023-03-12T17:32:09.886Z,14.97
2023-03-12T17:35:03.111Z,17.50
2023-03-12T17:37:49.660Z,14.83
2023-03-12T17:40:36.631Z,15.50
2023-03-12T17:43:23.654Z,14.07
2023-03-12T17:46:11.029Z,11.73
2023-03-12T17:48:58.271Z,11.97
2023-03-12T17:51:46.373Z,12.70
2023-03-12T17:54:32.849Z,11.33
2023-03-12T17:57:19.485Z,10.10
2023-03-12T18:00:12.798Z,11.07
2023-03-12T18:03:00.172Z,10.60
2023-03-12T18:05:46.656Z,8.97
2023-03-12T18:08:34.582Z,7.77
2023-03-12T18:11:20.954Z,9.10
2023-03-12T18:14:07.254Z,10.00
2023-03-12T18:16:53.725Z,6.37
2023-03-12T18:19:40.044Z,6.70
2023-03-12T18:22:27.016Z,7.47
2023-03-12T18:25:14.680Z,6.47
2023-03-12T18:28:01.460Z,6.70
2023-03-12T18:30:47.837Z,7.60
2023-03-12T18:33:35.272Z,5.80
2023-03-12T18:36:21.997Z,6.37
2023-03-12T18:39:09.801Z,6.30
2023-03-12T18:41:57.476Z,7.03
2023-03-12T18:44:44.030Z,6.33
2023-03-12T18:47:31.364Z,6.37
2023-03-12T18:50:18.257Z,6.70
2023-03-12T18:53:05.276Z,6.33
2023-03-12T18:55:53.280Z,6.30
2023-03-12T18:58:41.306Z,6.50
2023-03-12T19:01:28.083Z,6.00
2023-03-12T19:04:17.790Z,6.20
2023-03-12T19:07:05.195Z,6.27
2023-03-12T19:09:51.524Z,5.70
2023-03-12T19:12:51.051Z,5.57
2023-03-12T19:15:40.467Z,5.30
2023-03-12T19:18:27.237Z,5.83
2023-03-12T19:21:13.975Z,6.30
2023-03-12T19:24:00.404Z,6.73
2023-03-12T19:26:46.810Z,8.47
2023-03-12T19:29:33.383Z,8.40
2023-03-12T19:32:23.533Z,7.00
2023-03-12T19:35:13.501Z,7.13
2023-03-12T19:38:01.939Z,6.87
2023-03-12T19:40:50.224Z,6.60
2023-03-12T19:43:36.959Z,7.47
2023-03-12T19:46:23.670Z,6.23
2023-03-12T19:49:11.462Z,6.03
2023-03-12T19:51:58.067Z,6.83
2023-03-12T19:54:51.708Z,6.73
2023-03-12T19:57:41.877Z,7.50
2023-03-12T20:00:28.588Z,6.80
2023-03-12T20:03:15.208Z,6.20
2023-03-12T20:06:03.108Z,6.13
2023-03-12T20:08:50.069Z,6.00
2023-03-12T20:11:36.753Z,7.03
2023-03-12T20:14:23.450Z,6.20
2023-03-12T20:17:09.956Z,5.90
2023-03-12T20:19:56.282Z,6.93
2023-03-12T20:22:43.966Z,10.10
2023-03-12T20:25:30.775Z,7.87
2023-03-12T20:28:17.556Z,7.97
2023-03-12T20:31:08.949Z,6.33
2023-03-12T20:33:55.328Z,7.53
2023-03-12T20:36:41.922Z,6.97
2023-03-12T20:39:29.625Z,6.70
2023-03-12T20:42:16.360Z,7.03
2023-03-12T20:45:02.882Z,7.57
2023-03-12T20:47:49.384Z,7.10
2023-03-12T20:50:39.085Z,7.97
2023-03-12T20:53:25.856Z,7.17
2023-03-12T20:56:14.108Z,8.57
2023-03-12T20:59:00.920Z,9.63
2023-03-12T21:01:47.583Z,9.27
2023-03-12T21:04:34.112Z,9.97
2023-03-12T21:07:20.584Z,10.53
2023-03-12T21:10:08.362Z,12.30
2023-03-12T21:12:57.557Z,7.97
2023-03-12T21:15:44.256Z,7.50
2023-03-12T21:18:31.254Z,7.77
2023-03-12T21:21:18.215Z,7.17
2023-03-12T21:24:05.141Z,7.37
2023-03-12T21:26:51.666Z,8.73
2023-03-12T21:29:39.716Z,7.03
2023-03-12T21:32:26.526Z,7.97
2023-03-12T21:35:12.944Z,6.23
2023-03-12T21:37:59.891Z,6.50
2023-03-12T21:40:46.335Z,5.03
2023-03-12T21:43:32.746Z,6.57
2023-03-12T21:46:24.784Z,6.17
2023-03-12T21:49:11.511Z,4.83
2023-03-12T21:51:58.611Z,6.03
2023-03-12T21:54:45.080Z,5.03
2023-03-12T21:57:31.679Z,5.17
2023-03-12T22:00:18.723Z,5.33
2023-03-12T22:03:06.863Z,5.30
2023-03-12T22:05:53.214Z,4.70
2023-03-12T22:08:40.398Z,4.93
2023-03-12T22:11:27.125Z,4.53
2023-03-12T22:14:14.062Z,5.00
2023-03-12T22:17:00.692Z,4.07
2023-03-12T22:19:48.801Z,4.37
2023-03-12T22:22:35.529Z,4.03
2023-03-12T22:25:21.883Z,4.13
2023-03-12T22:28:08.372Z,4.10
2023-03-12T22:30:58.992Z,3.90
2023-03-12T22:33:45.912Z,4.27
2023-03-12T22:36:33.953Z,4.50
2023-03-12T22:39:20.270Z,3.93
2023-03-12T22:42:06.875Z,4.00
2023-03-12T22:44:53.275Z,4.47
2023-03-12T22:47:39.717Z,4.73
2023-03-12T22:50:26.147Z,3.43
2023-03-12T22:53:13.930Z,3.60
2023-03-12T22:56:01.773Z,4.43
2023-03-12T22:58:48.935Z,4.53
2023-03-12T23:01:35.473Z,4.73
2023-03-12T23:04:21.956Z,4.37
2023-03-12T23:07:14.494Z,3.63
2023-03-12T23:10:06.116Z,4.33
2023-03-12T23:12:52.553Z,3.83
2023-03-12T23:15:41.191Z,4.10
2023-03-12T23:18:28.261Z,3.93
2023-03-12T23:21:16.795Z,3.67
2023-03-12T23:24:03.333Z,3.87
2023-03-12T23:26:51.172Z,3.83
2023-03-12T23:29:37.803Z,3.87
2023-03-12T23:32:24.510Z,3.20
2023-03-12T23:35:11.137Z,4.17
2023-03-12T23:37:58.123Z,3.40
2023-03-12T23:40:46.492Z,3.90
2023-03-12T23:43:35.009Z,2.83
2023-03-12T23:46:21.882Z,4.03
2023-03-12T23:49:08.976Z,4.03
2023-03-12T23:51:55.299Z,3.90
2023-03-12T23:54:41.708Z,3.50
2023-03-12T23:57:28.243Z,3.97
